sensor_id;sensor_type;location;lat;lon;timestamp;P1;durP1;ratioP1;P2;durP2;ratioP2
12912;SDS011;6524;51.368;11.984;2023-07-29T04:05:05;3.80;;;3.50;;
12912;SDS011;6524;51.368;11.984;2023-07-29T04:10:08;7.63;;;6.72;;
12912;SDS011;6524;51.368;11.984;2023-07-29T04:15:09;8.32;;;7.53;;
12912;SDS011;6524;51.368;11.984;2023-07-29T04:20:10;4.30;;;3.90;;
12912;SDS011;6524;51.368;11.984;2023-07-29T04:25:10;3.72;;;3.42;;
12912;SDS011;6524;51.368;11.984;2023-07-29T04:30:11;3.20;;;2.90;;
12912;SDS011;6524;51.368;11.984;2023-07-29T04:35:11;3.00;;;2.80;;
12912;SDS011;6524;51.368;11.984;2023-07-29T04:40:11;2.80;;;2.60;;
12912;SDS011;6524;51.368;11.984;2023-07-29T04:45:12;2.60;;;2.40;;
12912;SDS011;6524;51.368;11.984;2023-07-29T04:50:12;2.72;;;2.50;;
12912;SDS011;6524;51.368;11.984;2023-07-29T04:55:13;2.38;;;2.22;;
12912;SDS011;6524;51.368;11.984;2023-07-29T05:00:13;3.95;;;2.42;;
12912;SDS011;6524;51.368;11.984;2023-07-29T05:05:13;3.00;;;2.80;;
12912;SDS011;6524;51.368;11.984;2023-07-29T05:10:14;3.75;;;3.45;;
12912;SDS011;6524;51.368;11.984;2023-07-29T05:15:14;3.70;;;3.40;;
12912;SDS011;6524;51.368;11.984;2023-07-29T05:20:15;3.83;;;3.53;;
12912;SDS011;6524;51.368;11.984;2023-07-29T05:25:16;3.30;;;3.00;;
12912;SDS011;6524;51.368;11.984;2023-07-29T05:30:16;2.80;;;2.60;;
12912;SDS011;6524;51.368;11.984;2023-07-29T05:35:17;3.45;;;2.50;;
12912;SDS011;6524;51.368;11.984;2023-07-29T05:40:18;2.90;;;2.70;;
12912;SDS011;6524;51.368;11.984;2023-07-29T05:45:18;3.22;;;2.40;;
12912;SDS011;6524;51.368;11.984;2023-07-29T05:50:18;3.00;;;2.70;;
12912;SDS011;6524;51.368;11.984;2023-07-29T05:55:19;2.33;;;2.13;;
12912;SDS011;6524;51.368;11.984;2023-07-29T06:00:19;3.28;;;2.97;;
12912;SDS011;6524;51.368;11.984;2023-07-29T06:05:19;2.90;;;2.50;;
12912;SDS011;6524;51.368;11.984;2023-07-29T06:10:20;3.63;;;3.33;;
12912;SDS011;6524;51.368;11.984;2023-07-29T06:15:20;2.42;;;2.30;;
12912;SDS011;6524;51.368;11.984;2023-07-29T06:20:22;3.00;;;2.70;;
12912;SDS011;6524;51.368;11.984;2023-07-29T06:25:23;2.75;;;2.55;;
12912;SDS011;6524;51.368;11.984;2023-07-29T06:30:23;4.78;;;4.35;;
12912;SDS011;6524;51.368;11.984;2023-07-29T06:35:24;2.58;;;2.42;;
12912;SDS011;6524;51.368;11.984;2023-07-29T06:40:24;3.15;;;2.95;;
12912;SDS011;6524;51.368;11.984;2023-07-29T06:45:25;3.00;;;2.70;;
12912;SDS011;6524;51.368;11.984;2023-07-29T06:50:25;3.15;;;2.67;;
12912;SDS011;6524;51.368;11.984;2023-07-29T06:55:25;2.75;;;2.50;;
12912;SDS011;6524;51.368;11.984;2023-07-29T07:00:26;2.70;;;2.50;;
12912;SDS011;6524;51.368;11.984;2023-07-29T07:05:27;3.30;;;3.00;;
12912;SDS011;6524;51.368;11.984;2023-07-29T07:10:27;5.30;;;2.50;;
12912;SDS011;6524;51.368;11.984;2023-07-29T07:15:29;3.70;;;3.40;;
12912;SDS011;6524;51.368;11.984;2023-07-29T07:20:29;3.60;;;3.30;;
12912;SDS011;6524;51.368;11.984;2023-07-29T07:25:29;2.55;;;2.45;;
12912;SDS011;6524;51.368;11.984;2023-07-29T07:30:29;5.37;;;4.87;;
12912;SDS011;6524;51.368;11.984;2023-07-29T07:35:30;2.92;;;2.60;;
12912;SDS011;6524;51.368;11.984;2023-07-29T07:40:31;2.70;;;2.50;;
12912;SDS011;6524;51.368;11.984;2023-07-29T07:45:34;2.78;;;2.33;;
12912;SDS011;6524;51.368;11.984;2023-07-29T07:50:34;3.20;;;2.38;;
12912;SDS011;6524;51.368;11.984;2023-07-29T07:55:35;2.33;;;2.20;;
12912;SDS011;6524;51.368;11.984;2023-07-29T08:00:36;2.50;;;2.30;;
12912;SDS011;6524;51.368;11.984;2023-07-29T08:05:38;3.03;;;2.43;;
12912;SDS011;6524;51.368;11.984;2023-07-29T08:10:38;2.63;;;2.40;;
12912;SDS011;6524;51.368;11.984;2023-07-29T08:15:39;2.90;;;2.65;;
12912;SDS011;6524;51.368;11.984;2023-07-29T08:20:41;2.55;;;2.33;;
12912;SDS011;6524;51.368;11.984;2023-07-29T08:25:41;2.00;;;1.90;;
12912;SDS011;6524;51.368;11.984;2023-07-29T08:30:42;3.58;;;3.13;;
12912;SDS011;6524;51.368;11.984;2023-07-29T08:35:42;1.90;;;1.80;;
12912;SDS011;6524;51.368;11.984;2023-07-29T08:46:22;1.90;;;1.80;;
12912;SDS011;6524;51.368;11.984;2023-07-29T08:51:23;2.00;;;1.90;;
12912;SDS011;6524;51.368;11.984;2023-07-29T08:56:24;1.80;;;1.70;;
12912;SDS011;6524;51.368;11.984;2023-07-29T09:01:25;2.35;;;1.92;;
12912;SDS011;6524;51.368;11.984;2023-07-29T09:06:25;1.70;;;1.60;;
12912;SDS011;6524;51.368;11.984;2023-07-29T09:11:27;1.60;;;1.50;;
12912;SDS011;6524;51.368;11.984;2023-07-29T09:16:28;2.35;;;1.90;;
12912;SDS011;6524;51.368;11.984;2023-07-29T09:21:29;1.50;;;1.40;;
12912;SDS011;6524;51.368;11.984;2023-07-29T09:26:30;1.40;;;1.30;;
12912;SDS011;6524;51.368;11.984;2023-07-29T09:31:31;1.55;;;1.45;;
12912;SDS011;6524;51.368;11.984;2023-07-29T09:36:32;1.70;;;1.60;;
12912;SDS011;6524;51.368;11.984;2023-07-29T09:41:33;1.75;;;1.58;;
12912;SDS011;6524;51.368;11.984;2023-07-29T09:46:35;1.63;;;1.50;;
12912;SDS011;6524;51.368;11.984;2023-07-29T09:51:37;2.05;;;1.85;;
12912;SDS011;6524;51.368;11.984;2023-07-29T09:56:41;1.73;;;1.63;;
12912;SDS011;6524;51.368;11.984;2023-07-29T10:01:44;2.00;;;1.90;;
12912;SDS011;6524;51.368;11.984;2023-07-29T10:06:45;1.70;;;1.60;;
12912;SDS011;6524;51.368;11.984;2023-07-29T10:11:47;2.85;;;2.65;;
12912;SDS011;6524;51.368;11.984;2023-07-29T10:16:48;3.88;;;3.47;;
12912;SDS011;6524;51.368;11.984;2023-07-29T10:21:49;4.82;;;2.10;;
12912;SDS011;6524;51.368;11.984;2023-07-29T10:26:50;4.00;;;2.30;;
12912;SDS011;6524;51.368;11.984;2023-07-29T10:31:54;2.17;;;2.00;;
12912;SDS011;6524;51.368;11.984;2023-07-29T10:36:57;2.33;;;2.13;;
12912;SDS011;6524;51.368;11.984;2023-07-29T10:42:02;2.20;;;2.00;;
12912;SDS011;6524;51.368;11.984;2023-07-29T10:47:13;2.72;;;2.22;;
12912;SDS011;6524;51.368;11.984;2023-07-29T10:52:27;2.30;;;2.10;;
12912;SDS011;6524;51.368;11.984;2023-07-29T10:57:34;2.30;;;2.10;;
12912;SDS011;6524;51.368;11.984;2023-07-29T11:02:41;2.10;;;2.00;;
12912;SDS011;6524;51.368;11.984;2023-07-29T11:07:46;2.50;;;2.10;;
12912;SDS011;6524;51.368;11.984;2023-07-29T11:12:49;2.30;;;2.10;;
12912;SDS011;6524;51.368;11.984;2023-07-29T11:17:52;2.70;;;2.50;;
12912;SDS011;6524;51.368;11.984;2023-07-29T11:23:14;2.92;;;2.67;;
12912;SDS011;6524;51.368;11.984;2023-07-29T11:28:15;2.10;;;1.98;;
12912;SDS011;6524;51.368;11.984;2023-07-29T11:33:17;2.30;;;2.10;;
12912;SDS011;6524;51.368;11.984;2023-07-29T11:38:20;2.25;;;2.05;;
12912;SDS011;6524;51.368;11.984;2023-07-29T11:43:22;2.30;;;2.10;;
12912;SDS011;6524;51.368;11.984;2023-07-29T11:48:26;4.00;;;3.58;;
12912;SDS011;6524;51.368;11.984;2023-07-29T11:53:31;2.70;;;1.92;;
12912;SDS011;6524;51.368;11.984;2023-07-29T11:58:31;2.10;;;2.00;;
12912;SDS011;6524;51.368;11.984;2023-07-29T12:03:32;3.75;;;2.40;;
12912;SDS011;6524;51.368;11.984;2023-07-29T12:08:33;2.15;;;2.00;;
12912;SDS011;6524;51.368;11.984;2023-07-29T12:13:36;3.50;;;3.20;;
12912;SDS011;6524;51.368;11.984;2023-07-29T12:18:37;2.03;;;1.80;;
12912;SDS011;6524;51.368;11.984;2023-07-29T12:23:38;2.00;;;1.90;;
12912;SDS011;6524;51.368;11.984;2023-07-29T12:28:38;2.70;;;2.45;;
12912;SDS011;6524;51.368;11.984;2023-07-29T12:33:46;3.10;;;2.10;;
12912;SDS011;6524;51.368;11.984;2023-07-29T12:38:46;2.80;;;2.10;;
12912;SDS011;6524;51.368;11.984;2023-07-29T12:43:47;2.28;;;2.10;;
12912;SDS011;6524;51.368;11.984;2023-07-29T12:48:47;2.80;;;2.13;;
12912;SDS011;6524;51.368;11.984;2023-07-29T12:53:48;2.40;;;2.08;;
12912;SDS011;6524;51.368;11.984;2023-07-29T12:58:48;2.25;;;2.05;;
12912;SDS011;6524;51.368;11.984;2023-07-29T13:03:49;2.28;;;2.08;;
12912;SDS011;6524;51.368;11.984;2023-07-29T13:08:50;1.92;;;1.83;;
12912;SDS011;6524;51.368;11.984;2023-07-29T13:13:51;2.10;;;2.00;;
12912;SDS011;6524;51.368;11.984;2023-07-29T13:18:51;2.63;;;2.20;;
12912;SDS011;6524;51.368;11.984;2023-07-29T13:23:52;2.33;;;2.00;;
12912;SDS011;6524;51.368;11.984;2023-07-29T13:28:52;2.30;;;2.08;;
12912;SDS011;6524;51.368;11.984;2023-07-29T13:33:53;2.40;;;2.20;;
12912;SDS011;6524;51.368;11.984;2023-07-29T13:38:54;2.42;;;2.22;;
12912;SDS011;6524;51.368;11.984;2023-07-29T13:43:54;2.70;;;2.38;;
12912;SDS011;6524;51.368;11.984;2023-07-29T13:48:55;2.60;;;2.33;;
12912;SDS011;6524;51.368;11.984;2023-07-29T13:53:55;3.20;;;2.90;;
12912;SDS011;6524;51.368;11.984;2023-07-29T13:58:56;3.63;;;2.25;;
12912;SDS011;6524;51.368;11.984;2023-07-29T14:03:57;2.25;;;2.10;;
12912;SDS011;6524;51.368;11.984;2023-07-29T14:08:57;2.75;;;2.55;;
12912;SDS011;6524;51.368;11.984;2023-07-29T14:13:58;2.65;;;2.10;;
12912;SDS011;6524;51.368;11.984;2023-07-29T14:18:58;2.50;;;2.30;;
12912;SDS011;6524;51.368;11.984;2023-07-29T14:23:59;2.80;;;2.50;;
12912;SDS011;6524;51.368;11.984;2023-07-29T14:29:00;2.90;;;2.53;;
12912;SDS011;6524;51.368;11.984;2023-07-29T14:34:00;4.05;;;2.80;;
12912;SDS011;6524;51.368;11.984;2023-07-29T14:39:01;3.28;;;2.60;;
12912;SDS011;6524;51.368;11.984;2023-07-29T14:44:02;3.85;;;2.65;;
12912;SDS011;6524;51.368;11.984;2023-07-29T14:49:03;4.10;;;2.70;;
12912;SDS011;6524;51.368;11.984;2023-07-29T14:54:06;2.90;;;2.60;;
12912;SDS011;6524;51.368;11.984;2023-07-29T14:59:07;3.65;;;2.50;;
12912;SDS011;6524;51.368;11.984;2023-07-29T15:04:08;3.55;;;2.70;;
12912;SDS011;6524;51.368;11.984;2023-07-29T15:09:12;3.65;;;2.47;;
12912;SDS011;6524;51.368;11.984;2023-07-29T15:14:13;5.72;;;3.45;;
12912;SDS011;6524;51.368;11.984;2023-07-29T15:19:13;4.50;;;2.72;;
12912;SDS011;6524;51.368;11.984;2023-07-29T15:24:14;3.03;;;2.75;;
12912;SDS011;6524;51.368;11.984;2023-07-29T15:29:15;2.90;;;2.60;;
12912;SDS011;6524;51.368;11.984;2023-07-29T15:34:16;2.97;;;2.67;;
12912;SDS011;6524;51.368;11.984;2023-07-29T15:39:16;2.80;;;2.50;;
12912;SDS011;6524;51.368;11.984;2023-07-29T15:44:17;3.42;;;3.13;;
12912;SDS011;6524;51.368;11.984;2023-07-29T15:49:18;3.42;;;3.00;;
12912;SDS011;6524;51.368;11.984;2023-07-29T15:54:18;4.05;;;2.50;;
12912;SDS011;6524;51.368;11.984;2023-07-29T15:59:19;3.80;;;2.88;;
12912;SDS011;6524;51.368;11.984;2023-07-29T16:04:22;3.08;;;2.78;;
12912;SDS011;6524;51.368;11.984;2023-07-29T16:09:23;3.25;;;2.67;;
12912;SDS011;6524;51.368;11.984;2023-07-29T16:14:23;4.18;;;3.78;;
12912;SDS011;6524;51.368;11.984;2023-07-29T16:19:27;2.80;;;2.60;;
12912;SDS011;6524;51.368;11.984;2023-07-29T16:24:28;3.65;;;3.05;;
12912;SDS011;6524;51.368;11.984;2023-07-29T16:29:29;3.00;;;2.60;;
12912;SDS011;6524;51.368;11.984;2023-07-29T16:34:30;3.70;;;3.10;;
12912;SDS011;6524;51.368;11.984;2023-07-29T16:39:30;4.65;;;3.90;;
12912;SDS011;6524;51.368;11.984;2023-07-29T16:44:31;3.60;;;2.83;;
12912;SDS011;6524;51.368;11.984;2023-07-29T16:49:32;3.80;;;2.67;;
12912;SDS011;6524;51.368;11.984;2023-07-29T16:54:32;5.38;;;2.60;;
12912;SDS011;6524;51.368;11.984;2023-07-29T16:59:33;3.10;;;2.65;;
12912;SDS011;6524;51.368;11.984;2023-07-29T17:04:33;3.10;;;2.80;;
12912;SDS011;6524;51.368;11.984;2023-07-29T17:09:34;4.00;;;2.60;;
12912;SDS011;6524;51.368;11.984;2023-07-29T17:14:34;3.00;;;2.70;;
12912;SDS011;6524;51.368;11.984;2023-07-29T17:19:35;5.25;;;4.75;;
12912;SDS011;6524;51.368;11.984;2023-07-29T17:24:35;3.65;;;2.95;;
12912;SDS011;6524;51.368;11.984;2023-07-29T17:29:36;3.25;;;2.95;;
12912;SDS011;6524;51.368;11.984;2023-07-29T17:34:37;3.53;;;2.90;;
12912;SDS011;6524;51.368;11.984;2023-07-29T17:39:37;4.93;;;4.43;;
12912;SDS011;6524;51.368;11.984;2023-07-29T17:44:41;3.97;;;3.40;;
12912;SDS011;6524;51.368;11.984;2023-07-29T17:49:41;3.80;;;3.50;;
12912;SDS011;6524;51.368;11.984;2023-07-29T17:54:41;4.10;;;3.70;;
12912;SDS011;6524;51.368;11.984;2023-07-29T17:59:42;3.30;;;3.00;;
12912;SDS011;6524;51.368;11.984;2023-07-29T18:04:42;3.83;;;3.10;;
12912;SDS011;6524;51.368;11.984;2023-07-29T18:09:43;2.85;;;2.60;;
12912;SDS011;6524;51.368;11.984;2023-07-29T18:14:44;2.85;;;2.58;;
12912;SDS011;6524;51.368;11.984;2023-07-29T18:19:45;3.55;;;2.90;;
12912;SDS011;6524;51.368;11.984;2023-07-29T18:24:45;3.00;;;2.77;;
12912;SDS011;6524;51.368;11.984;2023-07-29T18:29:46;3.35;;;2.90;;
12912;SDS011;6524;51.368;11.984;2023-07-29T18:34:46;3.20;;;2.63;;
12912;SDS011;6524;51.368;11.984;2023-07-29T18:39:46;2.88;;;2.50;;
12912;SDS011;6524;51.368;11.984;2023-07-29T18:44:47;3.17;;;2.55;;
12912;SDS011;6524;51.368;11.984;2023-07-29T18:49:47;3.38;;;3.08;;
12912;SDS011;6524;51.368;11.984;2023-07-29T18:54:48;2.43;;;2.23;;
12912;SDS011;6524;51.368;11.984;2023-07-29T18:59:48;2.65;;;2.38;;
12912;SDS011;6524;51.368;11.984;2023-07-29T19:04:48;2.60;;;2.40;;
12912;SDS011;6524;51.368;11.984;2023-07-29T19:09:49;2.60;;;2.40;;
12912;SDS011;6524;51.368;11.984;2023-07-29T19:14:49;3.30;;;2.23;;
12912;SDS011;6524;51.368;11.984;2023-07-29T19:19:49;3.90;;;3.60;;
12912;SDS011;6524;51.368;11.984;2023-07-29T19:24:50;3.20;;;2.90;;
12912;SDS011;6524;51.368;11.984;2023-07-29T19:29:50;2.73;;;2.53;;
12912;SDS011;6524;51.368;11.984;2023-07-29T19:34:51;2.75;;;2.30;;
12912;SDS011;6524;51.368;11.984;2023-07-29T19:39:55;2.72;;;2.50;;
12912;SDS011;6524;51.368;11.984;2023-07-29T19:44:56;2.97;;;2.10;;
12912;SDS011;6524;51.368;11.984;2023-07-29T19:49:56;3.53;;;2.30;;
12912;SDS011;6524;51.368;11.984;2023-07-29T19:54:57;2.53;;;2.30;;
12912;SDS011;6524;51.368;11.984;2023-07-29T19:59:57;2.70;;;2.50;;
12912;SDS011;6524;51.368;11.984;2023-07-29T20:04:57;3.72;;;3.40;;
12912;SDS011;6524;51.368;11.984;2023-07-29T20:09:57;2.80;;;2.60;;
12912;SDS011;6524;51.368;11.984;2023-07-29T20:14:58;3.43;;;2.40;;
12912;SDS011;6524;51.368;11.984;2023-07-29T20:20:00;3.13;;;2.42;;
12912;SDS011;6524;51.368;11.984;2023-07-29T20:25:01;2.95;;;2.65;;
12912;SDS011;6524;51.368;11.984;2023-07-29T20:30:01;2.70;;;2.40;;
12912;SDS011;6524;51.368;11.984;2023-07-29T20:35:02;3.15;;;2.60;;
12912;SDS011;6524;51.368;11.984;2023-07-29T20:40:03;3.00;;;2.58;;
12912;SDS011;6524;51.368;11.984;2023-07-29T20:45:04;4.07;;;3.03;;
12912;SDS011;6524;51.368;11.984;2023-07-29T20:50:05;3.33;;;2.85;;
12912;SDS011;6524;51.368;11.984;2023-07-29T20:55:06;3.70;;;3.40;;
12912;SDS011;6524;51.368;11.984;2023-07-29T21:00:07;5.00;;;3.20;;
12912;SDS011;6524;51.368;11.984;2023-07-29T21:05:10;3.10;;;2.80;;
12912;SDS011;6524;51.368;11.984;2023-07-29T21:10:10;4.00;;;3.42;;
12912;SDS011;6524;51.368;11.984;2023-07-29T21:15:13;4.70;;;3.33;;
12912;SDS011;6524;51.368;11.984;2023-07-29T21:20:14;4.20;;;3.80;;
12912;SDS011;6524;51.368;11.984;2023-07-29T21:25:15;4.65;;;3.80;;
12912;SDS011;6524;51.368;11.984;2023-07-29T21:30:15;5.15;;;4.30;;
12912;SDS011;6524;51.368;11.984;2023-07-29T21:35:16;4.43;;;4.03;;
12912;SDS011;6524;51.368;11.984;2023-07-29T21:40:16;4.10;;;3.72;;
12912;SDS011;6524;51.368;11.984;2023-07-29T21:45:17;4.68;;;4.13;;
12912;SDS011;6524;51.368;11.984;2023-07-29T21:50:17;4.90;;;4.10;;
12912;SDS011;6524;51.368;11.984;2023-07-29T21:55:18;5.95;;;5.35;;
12912;SDS011;6524;51.368;11.984;2023-07-29T22:00:19;5.35;;;4.85;;
12912;SDS011;6524;51.368;11.984;2023-07-29T22:05:20;5.85;;;5.35;;
12912;SDS011;6524;51.368;11.984;2023-07-29T22:10:20;5.10;;;4.55;;
12912;SDS011;6524;51.368;11.984;2023-07-29T22:15:20;4.97;;;4.47;;
12912;SDS011;6524;51.368;11.984;2023-07-29T22:20:21;5.45;;;4.95;;
12912;SDS011;6524;51.368;11.984;2023-07-29T22:25:21;5.32;;;4.80;;
12912;SDS011;6524;51.368;11.984;2023-07-29T22:30:22;4.97;;;4.50;;
12912;SDS011;6524;51.368;11.984;2023-07-29T22:35:22;4.72;;;4.32;;
12912;SDS011;6524;51.368;11.984;2023-07-29T22:40:23;8.67;;;7.87;;
12912;SDS011;6524;51.368;11.984;2023-07-29T22:45:23;5.20;;;4.70;;
12912;SDS011;6524;51.368;11.984;2023-07-29T22:50:23;4.10;;;3.70;;
12912;SDS011;6524;51.368;11.984;2023-07-29T22:55:24;4.90;;;3.60;;
12912;SDS011;6524;51.368;11.984;2023-07-29T23:00:24;4.13;;;3.72;;
12912;SDS011;6524;51.368;11.984;2023-07-29T23:05:25;3.88;;;3.53;;
12912;SDS011;6524;51.368;11.984;2023-07-29T23:10:25;4.40;;;4.00;;
12912;SDS011;6524;51.368;11.984;2023-07-29T23:15:26;4.60;;;4.10;;
12912;SDS011;6524;51.368;11.984;2023-07-29T23:20:26;4.35;;;3.92;;
12912;SDS011;6524;51.368;11.984;2023-07-29T23:25:28;4.25;;;3.85;;
12912;SDS011;6524;51.368;11.984;2023-07-29T23:36:08;9.25;;;5.35;;
12912;SDS011;6524;51.368;11.984;2023-07-29T23:41:09;5.90;;;4.47;;
12912;SDS011;6524;51.368;11.984;2023-07-29T23:46:09;4.47;;;4.07;;
12912;SDS011;6524;51.368;11.984;2023-07-29T23:51:10;4.68;;;4.05;;
12912;SDS011;6524;51.368;11.984;2023-07-29T23:56:10;5.60;;;3.95;;
